Time;durP1;ratioP1;P1;durP2;ratioP2;P2;SDS_P1;SDS_P2;PMS_P1;PMS_P2;Temp;Humidity;BMP_temperature;BMP_pressure;BME280_temperature;BME280_humidity;BME280_pressure;Samples;Min_cycle;Max_cycle;Signal;HPM_P1;HPM_P2
2023/12/25 00:01:17;;;;;;;0.40;0.20;;;;;;;6.04;100.00;95138.94;108976;1271;23703;-79
2023/12/25 00:03:48;;;;;;;0.20;0.10;;;;;;;6.02;100.00;95133.75;108974;1265;22811;-79
2023/12/25 00:06:19;;;;;;;0.60;0.30;;;;;;;6.01;100.00;95142.30;108950;1271;22484;-80
2023/12/25 00:08:53;;;;;;;0.80;0.20;;;;;;;6.01;100.00;95138.04;108853;1272;23036;-79
2023/12/25 00:11:26;;;;;;;0.30;0.20;;;;;;;6.02;100.00;95138.33;108868;1272;25424;-79
2023/12/25 00:13:57;;;;;;;0.40;0.20;;;;;;;6.05;100.00;95137.52;108812;1272;22659;-79
2023/12/25 00:16:28;;;;;;;0.60;0.20;;;;;;;6.11;100.00;95148.73;108830;1267;23783;-79
2023/12/25 00:19:03;;;;;;;0.20;0.20;;;;;;;6.15;100.00;95149.71;108847;1272;25931;-79
2023/12/25 00:21:34;;;;;;;0.10;0.10;;;;;;;6.18;100.00;95154.05;108821;1270;22780;-78
2023/12/25 00:24:05;;;;;;;0.10;0.10;;;;;;;6.22;100.00;95154.52;108829;1272;22561;-78
2023/12/25 00:26:40;;;;;;;0.50;0.30;;;;;;;6.20;100.00;95147.77;108849;1272;22576;-79
2023/12/25 00:29:11;;;;;;;0.50;0.20;;;;;;;6.22;100.00;95146.05;108865;1272;22587;-79
2023/12/25 00:31:42;;;;;;;0.30;0.20;;;;;;;6.28;100.00;95143.38;108852;1266;22611;-79
2023/12/25 00:34:16;;;;;;;0.10;0.10;;;;;;;6.31;100.00;95155.31;108810;1271;22562;-79
2023/12/25 00:36:47;;;;;;;0.30;0.10;;;;;;;6.36;100.00;95145.42;108830;1272;26133;-79
2023/12/25 00:39:18;;;;;;;0.20;0.10;;;;;;;6.36;100.00;95147.36;108814;1268;25960;-79
2023/12/25 00:41:49;;;;;;;0.10;0.10;;;;;;;6.39;100.00;95142.64;108828;1268;22739;-79
2023/12/25 00:44:20;;;;;;;0.60;0.20;;;;;;;6.44;100.00;95121.80;108802;1269;22543;-79
2023/12/25 00:46:54;;;;;;;0.20;0.20;;;;;;;6.45;100.00;95110.30;108816;1272;25295;-79
2023/12/25 00:49:25;;;;;;;0.50;0.20;;;;;;;6.46;100.00;95110.83;108825;1272;22537;-79
2023/12/25 00:51:56;;;;;;;0.50;0.30;;;;;;;6.48;100.00;95106.06;108810;1271;24196;-79
2023/12/25 00:54:29;;;;;;;0.10;0.10;;;;;;;6.48;100.00;95083.58;108847;1266;25412;-79
2023/12/25 00:57:03;;;;;;;0.20;0.10;;;;;;;6.51;100.00;95106.85;108852;1272;23021;-79
2023/12/25 00:59:34;;;;;;;0.20;0.20;;;;;;;6.63;100.00;95109.02;108758;1267;23326;-80
2023/12/25 01:02:05;;;;;;;0.30;0.10;;;;;;;6.67;100.00;95108.65;108818;1272;22649;-79
2023/12/25 01:04:36;;;;;;;0.50;0.10;;;;;;;6.68;100.00;95126.27;108780;1249;25406;-79
2023/12/25 01:07:07;;;;;;;0.70;0.10;;;;;;;6.76;100.00;95113.06;108874;1254;22548;-80
2023/12/25 01:09:38;;;;;;;0.30;0.20;;;;;;;6.81;100.00;95115.50;109002;1271;22546;-80
2023/12/25 01:12:12;;;;;;;0.20;0.20;;;;;;;6.88;100.00;95110.84;109043;1268;22543;-79
2023/12/25 01:14:45;;;;;;;0.40;0.10;;;;;;;6.91;100.00;95111.60;109004;1271;23860;-79
2023/12/25 01:17:17;;;;;;;0.70;0.20;;;;;;;6.92;100.00;95122.05;108993;1266;22776;-79
2023/12/25 01:19:48;;;;;;;0.30;0.10;;;;;;;6.95;100.00;95119.10;108968;1271;22532;-79
2023/12/25 01:22:19;;;;;;;0.30;0.10;;;;;;;7.00;100.00;95125.74;109026;1271;24190;-78
2023/12/25 01:24:54;;;;;;;0.50;0.30;;;;;;;7.03;100.00;95131.91;108989;1267;23477;-79
2023/12/25 01:27:27;;;;;;;0.30;0.20;;;;;;;7.07;100.00;95138.27;108998;1271;22598;-79
2023/12/25 01:30:01;;;;;;;0.60;0.10;;;;;;;7.09;100.00;95147.98;108994;1271;22526;-79
2023/12/25 01:32:32;;;;;;;0.80;0.40;;;;;;;7.12;100.00;95146.13;109033;1268;22536;-79
2023/12/25 01:35:03;;;;;;;0.20;0.20;;;;;;;7.11;100.00;95154.58;109014;1271;23736;-78
2023/12/25 01:37:34;;;;;;;0.90;0.20;;;;;;;7.10;100.00;95137.42;109025;1266;22556;-78
2023/12/25 01:40:07;;;;;;;0.20;0.10;;;;;;;7.15;100.00;95140.64;109000;1271;22573;-79
2023/12/25 01:42:41;;;;;;;4.00;0.30;;;;;;;7.19;100.00;95142.48;109024;1268;25421;-79
2023/12/25 01:45:13;;;;;;;0.60;0.20;;;;;;;7.17;100.00;95147.52;109004;1271;24186;-79
2023/12/25 01:47:44;;;;;;;0.70;0.20;;;;;;;7.18;100.00;95146.66;108993;1271;23076;-79
2023/12/25 01:50:16;;;;;;;1.30;0.40;;;;;;;7.22;100.00;95157.60;108993;1271;22523;-79
2023/12/25 01:52:49;;;;;;;1.30;0.60;;;;;;;7.13;100.00;95171.58;108964;1271;22588;-80
2023/12/25 01:55:20;;;;;;;1.50;0.50;;;;;;;6.94;100.00;95168.91;108957;1268;25258;-79
2023/12/25 01:57:54;;;;;;;0.50;0.50;;;;;;;6.78;100.00;95164.16;109002;1271;22533;-79
2023/12/25 02:00:27;;;;;;;0.60;0.30;;;;;;;6.66;100.00;95177.44;109082;1271;22521;-79
2023/12/25 02:03:00;;;;;;;0.50;0.30;;;;;;;6.69;100.00;95174.66;109006;1271;24281;-79
2023/12/25 02:05:34;;;;;;;0.40;0.30;;;;;;;6.85;100.00;95175.54;109025;1271;22837;-79
2023/12/25 02:08:06;;;;;;;1.30;0.50;;;;;;;7.06;100.00;95177.77;108991;1271;22537;-80
2023/12/25 02:10:39;;;;;;;0.60;0.30;;;;;;;7.21;100.00;95177.24;109028;1271;22627;-79
2023/12/25 02:13:10;;;;;;;0.60;0.10;;;;;;;7.34;100.00;95176.20;109019;1271;24069;-79
2023/12/25 02:15:41;;;;;;;0.30;0.10;;;;;;;7.37;100.00;95189.13;109052;1271;25491;-79
2023/12/25 02:18:13;;;;;;;0.90;0.20;;;;;;;7.41;100.00;95169.00;109018;1266;22626;-79
2023/12/25 02:20:44;;;;;;;0.20;0.20;;;;;;;7.49;100.00;95185.38;108964;1266;24674;-79
2023/12/25 02:23:17;;;;;;;0.60;0.30;;;;;;;7.49;100.00;95179.30;109000;1269;22607;-80
2023/12/25 02:25:56;;;;;;;0.30;0.20;;;;;;;7.51;100.00;95188.22;109039;1271;22525;-79
2023/12/25 02:28:30;;;;;;;1.00;0.20;;;;;;;7.54;100.00;95183.78;109041;1271;23020;-79
2023/12/25 02:31:01;;;;;;;0.30;0.20;;;;;;;7.59;100.00;95172.60;108960;1269;22517;-79
2023/12/25 02:33:32;;;;;;;0.50;0.20;;;;;;;7.61;100.00;95168.41;108990;1264;23676;-79
2023/12/25 02:36:03;;;;;;;0.80;0.20;;;;;;;7.62;100.00;95171.72;109014;1271;22564;-79
2023/12/25 02:38:34;;;;;;;0.40;0.20;;;;;;;7.65;100.00;95164.52;109043;1264;22585;-79
2023/12/25 02:41:05;;;;;;;0.30;0.20;;;;;;;7.68;100.00;95156.19;109018;1268;22526;-79
2023/12/25 02:43:39;;;;;;;0.10;0.10;;;;;;;7.73;100.00;95160.77;109020;1271;22522;-79
2023/12/25 02:46:09;;;;;;;0.30;0.20;;;;;;;7.79;100.00;95170.74;109012;1269;22514;-79
2023/12/25 02:48:40;;;;;;;0.60;0.20;;;;;;;7.73;100.00;95171.33;108935;1269;26936;-79
2023/12/25 02:51:11;;;;;;;0.60;0.30;;;;;;;7.75;100.00;95173.89;109032;1266;22519;-79
2023/12/25 02:53:42;;;;;;;0.30;0.20;;;;;;;7.83;100.00;95166.05;109024;1269;23223;-79
2023/12/25 02:56:13;;;;;;;0.20;0.20;;;;;;;7.88;100.00;95166.77;108997;1264;24216;-79
2023/12/25 02:58:44;;;;;;;0.40;0.20;;;;;;;7.97;100.00;95166.63;108997;1271;24210;-79
2023/12/25 03:01:15;;;;;;;0.60;0.30;;;;;;;7.99;100.00;95173.00;109016;1271;22542;-79
2023/12/25 03:03:46;;;;;;;0.10;0.10;;;;;;;7.97;100.00;95172.40;109008;1271;22549;-78
2023/12/25 03:06:19;;;;;;;0.20;0.20;;;;;;;8.02;100.00;95168.25;109002;1271;22533;-78
2023/12/25 03:08:56;;;;;;;0.60;0.20;;;;;;;8.03;100.00;95173.89;108775;1273;22634;-78
2023/12/25 03:11:29;;;;;;;0.30;0.10;;;;;;;8.07;100.00;95184.20;108800;1262;22538;-78
2023/12/25 03:14:02;;;;;;;0.30;0.30;;;;;;;8.03;100.00;95178.30;108832;1273;22717;-78
2023/12/25 03:16:33;;;;;;;0.80;0.50;;;;;;;8.03;100.00;95183.34;108827;1273;22552;-78
2023/12/25 03:19:04;;;;;;;0.20;0.10;;;;;;;8.01;100.00;95178.08;108817;1270;22602;-78
2023/12/25 03:21:35;;;;;;;0.20;0.10;;;;;;;8.01;99.91;95180.41;108659;1273;170454;-78
2023/12/25 03:24:07;;;;;;;0.40;0.20;;;;;;;8.08;99.93;95180.48;108819;1273;22526;-78
2023/12/25 03:26:39;;;;;;;0.10;0.10;;;;;;;8.12;99.65;95181.55;108805;1273;22548;-79
2023/12/25 03:29:12;;;;;;;0.50;0.20;;;;;;;8.19;99.26;95169.31;108817;1273;44092;-79
2023/12/25 03:31:43;;;;;;;0.20;0.20;;;;;;;8.21;98.85;95176.56;108751;1271;23084;-79
2023/12/25 03:34:22;;;;;;;0.50;0.10;;;;;;;8.22;98.64;95187.29;108714;1274;22485;-79
2023/12/25 03:36:54;;;;;;;0.20;0.10;;;;;;;8.23;98.47;95185.49;108820;1271;22538;-79
2023/12/25 03:39:25;;;;;;;0.20;0.10;;;;;;;8.22;98.36;95183.13;108727;1274;22554;-79
2023/12/25 03:41:56;;;;;;;0.30;0.20;;;;;;;8.18;98.14;95178.98;108743;1274;22517;-79
2023/12/25 03:44:30;;;;;;;0.30;0.20;;;;;;;8.16;98.14;95183.14;108769;1274;22529;-79
2023/12/25 03:47:05;;;;;;;0.70;0.10;;;;;;;8.12;98.02;95194.27;108781;1274;24220;-79
2023/12/25 03:49:37;;;;;;;0.00;0.00;;;;;;;8.13;98.19;95197.79;108725;1273;22540;-79
2023/12/25 03:52:08;;;;;;;0.30;0.10;;;;;;;8.14;97.78;95190.84;108805;1270;25454;-79
2023/12/25 03:54:39;;;;;;;0.20;0.20;;;;;;;8.15;97.60;95195.66;108760;1273;22524;-78
2023/12/25 03:57:11;;;;;;;0.20;0.10;;;;;;;8.16;97.28;95199.52;108795;1273;23051;-79
2023/12/25 03:59:42;;;;;;;0.20;0.20;;;;;;;8.16;97.27;95196.52;108706;1273;26232;-78
2023/12/25 04:02:13;;;;;;;0.70;0.30;;;;;;;8.23;96.60;95189.73;108743;1271;22519;-78
2023/12/25 04:04:45;;;;;;;0.20;0.10;;;;;;;8.26;96.38;95192.23;108730;1274;22572;-78
2023/12/25 04:07:16;;;;;;;0.30;0.10;;;;;;;8.26;96.34;95179.45;108838;1270;22543;-78
2023/12/25 04:09:51;;;;;;;0.10;0.10;;;;;;;8.27;96.19;95178.48;108917;1271;24164;-78
2023/12/25 04:12:23;;;;;;;0.10;0.10;;;;;;;8.36;95.43;95182.27;108971;1271;22513;-78
2023/12/25 04:14:54;;;;;;;0.10;0.10;;;;;;;8.42;94.63;95181.50;108975;1271;22665;-78
2023/12/25 04:17:26;;;;;;;0.10;0.10;;;;;;;8.43;94.04;95178.72;108973;1271;25407;-78
2023/12/25 04:19:58;;;;;;;0.40;0.30;;;;;;;8.42;93.86;95194.17;108947;1270;28743;-78
2023/12/25 04:22:30;;;;;;;0.10;0.10;;;;;;;8.39;93.66;95193.98;108969;1271;22525;-78
2023/12/25 04:25:03;;;;;;;2.00;0.20;;;;;;;8.43;93.18;95201.86;108956;1264;22528;-78
2023/12/25 04:27:37;;;;;;;0.40;0.40;;;;;;;8.47;93.08;95211.17;109031;1271;22545;-77
2023/12/25 04:30:10;;;;;;;0.10;0.10;;;;;;;8.47;92.84;95217.05;108934;1270;23278;-78
2023/12/25 04:32:41;;;;;;;0.00;0.00;;;;;;;8.45;92.98;95220.73;109052;1254;23766;-78
2023/12/25 04:35:12;;;;;;;0.20;0.10;;;;;;;8.43;92.86;95238.21;109033;1271;24200;-78
2023/12/25 04:37:43;;;;;;;0.30;0.10;;;;;;;8.45;92.67;95240.65;108981;1271;22524;-78
2023/12/25 04:40:15;;;;;;;0.40;0.20;;;;;;;8.51;92.47;95246.52;108985;1269;37893;-78
2023/12/25 04:42:46;;;;;;;0.30;0.30;;;;;;;8.49;92.53;95251.17;108977;1271;22519;-78
2023/12/25 04:45:18;;;;;;;0.40;0.20;;;;;;;8.45;92.25;95250.96;108968;1270;23676;-78
2023/12/25 04:47:50;;;;;;;0.20;0.20;;;;;;;8.41;92.44;95238.72;109010;1269;22543;-78
2023/12/25 04:50:23;;;;;;;0.20;0.20;;;;;;;8.36;92.42;95246.17;109035;1271;22538;-78
2023/12/25 04:52:55;;;;;;;0.20;0.10;;;;;;;8.35;92.58;95244.83;108966;1266;24993;-78
2023/12/25 04:55:27;;;;;;;0.30;0.10;;;;;;;8.37;92.44;95240.13;109000;1271;22528;-78
2023/12/25 04:57:59;;;;;;;0.80;0.20;;;;;;;8.41;92.36;95244.10;108963;1271;22543;-79
2023/12/25 05:00:32;;;;;;;0.10;0.10;;;;;;;8.38;92.28;95254.21;108944;1264;24042;-78
2023/12/25 05:03:04;;;;;;;0.20;0.20;;;;;;;8.37;92.21;95258.40;108999;1264;22533;-78
2023/12/25 05:05:35;;;;;;;0.10;0.10;;;;;;;8.38;92.29;95249.55;108927;1264;22482;-79
2023/12/25 05:08:07;;;;;;;0.30;0.20;;;;;;;8.40;92.31;95237.04;108979;1264;24200;-79
2023/12/25 05:10:39;;;;;;;0.70;0.20;;;;;;;8.42;92.34;95257.76;108968;1271;22518;-79
2023/12/25 05:13:10;;;;;;;0.10;0.10;;;;;;;8.45;92.22;95258.93;108945;1264;22530;-78
2023/12/25 05:15:41;;;;;;;0.60;0.30;;;;;;;8.47;91.96;95249.55;108966;1271;22533;-78
2023/12/25 05:18:13;;;;;;;1.20;0.30;;;;;;;8.50;91.73;95262.14;108908;1271;23859;-78
2023/12/25 05:20:44;;;;;;;1.10;0.30;;;;;;;8.51;91.64;95258.21;109000;1271;22624;-78
2023/12/25 05:23:15;;;;;;;0.50;0.20;;;;;;;8.49;91.50;95260.73;108985;1264;22606;-78
2023/12/25 05:25:49;;;;;;;0.40;0.30;;;;;;;8.46;91.40;95272.70;108987;1271;22660;-77
2023/12/25 05:28:26;;;;;;;0.10;0.10;;;;;;;8.48;91.48;95268.77;108920;1271;22962;-77
2023/12/25 05:30:57;;;;;;;0.10;0.10;;;;;;;8.54;91.26;95272.86;108907;1269;22674;-78
2023/12/25 05:33:28;;;;;;;1.10;0.30;;;;;;;8.58;90.94;95277.02;108970;1253;22526;-78
2023/12/25 05:35:59;;;;;;;0.20;0.10;;;;;;;8.60;90.69;95294.84;108878;1271;24254;-78
2023/12/25 05:38:31;;;;;;;0.50;0.20;;;;;;;8.63;90.52;95297.83;109052;1271;24213;-79
2023/12/25 05:41:02;;;;;;;0.50;0.20;;;;;;;8.62;90.28;95290.23;109050;1271;22524;-79
2023/12/25 05:43:33;;;;;;;0.20;0.10;;;;;;;8.60;90.29;95295.77;108938;1270;22559;-75
2023/12/25 05:46:05;;;;;;;0.50;0.20;;;;;;;8.57;90.24;95301.79;108950;1271;23058;-78
2023/12/25 05:48:39;;;;;;;0.20;0.10;;;;;;;8.55;90.23;95301.69;108965;1271;22547;-78
2023/12/25 05:51:10;;;;;;;0.40;0.20;;;;;;;8.56;90.34;95308.44;108909;1270;23890;-78
2023/12/25 05:53:42;;;;;;;0.10;0.00;;;;;;;8.54;90.19;95309.95;108925;1272;22527;-78
2023/12/25 05:56:15;;;;;;;0.20;0.20;;;;;;;8.52;90.35;95312.59;108943;1270;22538;-78
2023/12/25 05:58:48;;;;;;;1.20;0.10;;;;;;;8.50;90.09;95306.87;108841;1271;23242;-78
2023/12/25 06:01:20;;;;;;;1.80;0.80;;;;;;;8.56;90.02;95311.70;108971;1271;22898;-78
2023/12/25 06:03:54;;;;;;;0.30;0.10;;;;;;;8.54;89.93;95318.77;108972;1264;22535;-78
2023/12/25 06:06:25;;;;;;;3.80;0.50;;;;;;;8.58;89.85;95329.59;108942;1271;22553;-78
2023/12/25 06:08:56;;;;;;;0.90;0.30;;;;;;;8.58;89.73;95329.95;108948;1271;23833;-78
2023/12/25 06:11:30;;;;;;;1.70;0.50;;;;;;;8.57;89.50;95330.17;109003;1271;22860;-78
2023/12/25 06:14:03;;;;;;;0.30;0.10;;;;;;;8.62;89.05;95326.13;108940;1271;25364;-79
2023/12/25 06:16:34;;;;;;;0.20;0.10;;;;;;;8.68;88.71;95330.95;108966;1271;22526;-78
2023/12/25 06:19:06;;;;;;;0.20;0.10;;;;;;;8.65;88.85;95330.75;108988;1271;22517;-78
2023/12/25 06:21:37;;;;;;;0.10;0.10;;;;;;;8.58;88.80;95333.66;108993;1264;22519;-78
2023/12/25 06:24:09;;;;;;;0.40;0.40;;;;;;;8.52;88.89;95333.98;108992;1264;22553;-79
2023/12/25 06:26:40;;;;;;;0.20;0.20;;;;;;;8.50;89.00;95332.55;108969;1265;24300;-78
2023/12/25 06:29:11;;;;;;;0.30;0.20;;;;;;;8.45;89.04;95336.52;108941;1271;22631;-78
2023/12/25 06:31:50;;;;;;;1.00;0.70;;;;;;;8.44;89.13;95328.29;109007;1271;22596;-78
2023/12/25 06:34:24;;;;;;;0.50;0.40;;;;;;;8.44;89.06;95339.05;108965;1271;22567;-78
2023/12/25 06:36:58;;;;;;;0.40;0.30;;;;;;;8.47;89.07;95341.92;109010;1269;22928;-78
2023/12/25 06:39:30;;;;;;;0.20;0.10;;;;;;;8.46;89.12;95330.58;108971;1271;23306;-79
2023/12/25 06:42:01;;;;;;;0.90;0.20;;;;;;;8.48;88.96;95329.90;108983;1271;22613;-79
2023/12/25 06:44:34;;;;;;;0.10;0.10;;;;;;;8.53;88.94;95331.66;109018;1271;22518;-79
2023/12/25 06:47:06;;;;;;;0.60;0.40;;;;;;;8.54;88.98;95322.74;109026;1264;23533;-79
2023/12/25 06:49:38;;;;;;;0.70;0.40;;;;;;;8.55;88.77;95313.27;108974;1271;22622;-79
2023/12/25 06:52:10;;;;;;;0.50;0.20;;;;;;;8.58;88.51;95296.30;108944;1264;22567;-79
2023/12/25 06:54:41;;;;;;;1.90;0.30;;;;;;;8.63;88.18;95311.67;108997;1270;23357;-78
2023/12/25 06:57:14;;;;;;;0.70;0.20;;;;;;;8.67;87.76;95321.25;108973;1263;22608;-79
2023/12/25 06:59:46;;;;;;;1.00;0.30;;;;;;;8.71;87.73;95309.48;108901;1271;35794;-78
2023/12/25 07:02:21;;;;;;;1.50;0.60;;;;;;;8.73;87.29;95313.14;108961;1264;22530;-79
2023/12/25 07:04:55;;;;;;;2.30;2.10;;;;;;;8.75;86.93;95312.22;108958;1271;23927;-79
2023/12/25 07:07:26;;;;;;;1.40;1.10;;;;;;;8.72;87.20;95335.94;108934;1271;24232;-79
2023/12/25 07:09:57;;;;;;;1.80;0.70;;;;;;;8.73;87.07;95321.52;108970;1266;22529;-79
2023/12/25 07:12:30;;;;;;;0.40;0.30;;;;;;;8.79;86.69;95318.88;108952;1271;23979;-79
2023/12/25 07:15:04;;;;;;;0.70;0.30;;;;;;;8.85;85.98;95332.55;108971;1271;22524;-79
2023/12/25 07:17:36;;;;;;;0.30;0.30;;;;;;;8.91;85.77;95327.29;108934;1271;22702;-79
2023/12/25 07:20:10;;;;;;;0.60;0.30;;;;;;;8.92;85.54;95337.92;108941;1270;22522;-79
2023/12/25 07:22:41;;;;;;;1.00;0.30;;;;;;;8.92;85.13;95322.03;109090;1264;22525;-80
2023/12/25 07:25:13;;;;;;;0.50;0.30;;;;;;;8.94;84.74;95323.41;108971;1271;22518;-79
2023/12/25 07:27:44;;;;;;;0.80;0.50;;;;;;;8.97;84.22;95321.00;108957;1264;22545;-79
2023/12/25 07:30:16;;;;;;;0.20;0.20;;;;;;;8.96;84.11;95335.33;108958;1271;25392;-78
2023/12/25 07:32:50;;;;;;;0.30;0.20;;;;;;;9.02;83.35;95331.01;109016;1271;24359;-79
2023/12/25 07:35:21;;;;;;;0.80;0.50;;;;;;;9.05;83.45;95342.98;108977;1264;22868;-79
2023/12/25 07:37:57;;;;;;;1.60;0.50;;;;;;;9.02;83.63;95343.55;108975;1264;24220;-77
2023/12/25 07:40:28;;;;;;;0.60;0.50;;;;;;;9.02;83.81;95339.27;108949;1266;23777;-79
2023/12/25 07:43:01;;;;;;;0.70;0.40;;;;;;;9.03;83.41;95336.96;108972;1264;22520;-79
2023/12/25 07:45:33;;;;;;;0.40;0.30;;;;;;;9.05;83.01;95358.87;108942;1271;24349;-80
2023/12/25 07:48:04;;;;;;;0.40;0.30;;;;;;;9.09;83.17;95355.29;108945;1271;23753;-79
2023/12/25 07:50:36;;;;;;;1.50;0.80;;;;;;;9.08;83.05;95352.70;108902;1264;22837;-79
2023/12/25 07:53:10;;;;;;;0.10;0.10;;;;;;;9.11;82.56;95361.67;108976;1271;22513;-79
2023/12/25 07:55:41;;;;;;;1.30;0.80;;;;;;;9.13;82.67;95356.22;108997;1271;22578;-79
2023/12/25 07:58:14;;;;;;;1.40;0.50;;;;;;;9.16;83.05;95354.02;108975;1264;22548;-79
2023/12/25 08:00:46;;;;;;;0.30;0.20;;;;;;;9.22;81.92;95345.66;108933;1264;23770;-79
2023/12/25 08:03:22;;;;;;;0.70;0.40;;;;;;;9.35;81.73;95358.02;108981;1271;22570;-79
2023/12/25 08:05:53;;;;;;;1.40;0.50;;;;;;;9.44;80.89;95375.90;108963;1271;22552;-79
2023/12/25 08:08:33;;;;;;;1.20;0.30;;;;;;;9.53;80.51;95373.55;109105;1264;22757;-79
2023/12/25 08:11:04;;;;;;;0.90;0.30;;;;;;;9.51;80.30;95369.84;108952;1271;22482;-79
2023/12/25 08:13:36;;;;;;;0.10;0.10;;;;;;;9.50;80.50;95369.29;108966;1269;25261;-79
2023/12/25 08:16:07;;;;;;;0.80;0.30;;;;;;;9.53;80.09;95362.92;108946;1268;23797;-79
2023/12/25 08:18:39;;;;;;;0.30;0.20;;;;;;;9.55;79.86;95358.02;109009;1268;22542;-79
2023/12/25 08:21:11;;;;;;;0.30;0.30;;;;;;;9.57;79.76;95355.10;108993;1268;22543;-79
2023/12/25 08:23:44;;;;;;;0.20;0.20;;;;;;;9.61;80.20;95351.15;108980;1271;25426;-79
2023/12/25 08:26:15;;;;;;;1.10;0.60;;;;;;;9.66;80.23;95355.92;109037;1271;22781;-79
2023/12/25 08:28:48;;;;;;;1.20;0.60;;;;;;;9.73;79.89;95363.29;108979;1271;22538;-79
2023/12/25 08:31:20;;;;;;;1.50;0.80;;;;;;;9.83;78.73;95354.19;108956;1271;22664;-79
2023/12/25 08:33:51;;;;;;;0.80;0.50;;;;;;;9.97;78.70;95363.64;109008;1267;24193;-79
2023/12/25 08:36:25;;;;;;;1.00;0.70;;;;;;;10.03;78.30;95362.77;108972;1264;22521;-81
2023/12/25 08:38:56;;;;;;;0.70;0.50;;;;;;;10.04;78.18;95359.75;108995;1271;22549;-79
2023/12/25 08:41:27;;;;;;;0.60;0.60;;;;;;;10.00;77.85;95355.94;108973;1264;26221;-79
2023/12/25 08:43:59;;;;;;;1.80;1.00;;;;;;;10.04;77.88;95363.46;108994;1271;25247;-79
2023/12/25 08:46:31;;;;;;;0.50;0.50;;;;;;;10.09;77.52;95341.91;108954;1271;22601;-79
2023/12/25 08:49:05;;;;;;;0.90;0.50;;;;;;;10.16;77.01;95349.37;108927;1271;22614;-79
2023/12/25 08:51:40;;;;;;;0.50;0.30;;;;;;;10.23;77.03;95376.95;108973;1264;22792;-79
2023/12/25 08:54:11;;;;;;;1.70;0.50;;;;;;;10.27;77.10;95376.58;109009;1263;25362;-80
2023/12/25 08:56:42;;;;;;;1.20;0.50;;;;;;;10.29;76.59;95373.36;108969;1264;22923;-79
2023/12/25 08:59:13;;;;;;;3.20;0.50;;;;;;;10.34;76.91;95379.10;108956;1271;29292;-80
2023/12/25 09:01:44;;;;;;;1.00;0.50;;;;;;;10.41;76.32;95374.29;108950;1271;23991;-79
2023/12/25 09:04:15;;;;;;;1.10;0.30;;;;;;;10.40;75.66;95366.52;108982;1271;22831;-79
2023/12/25 09:06:50;;;;;;;0.80;0.50;;;;;;;10.33;76.06;95375.64;108948;1271;22688;-79
2023/12/25 09:09:23;;;;;;;1.80;0.40;;;;;;;10.31;76.42;95382.73;108917;1268;22764;-80
2023/12/25 09:11:54;;;;;;;1.00;0.40;;;;;;;10.35;75.98;95382.90;108981;1265;22549;-78
2023/12/25 09:14:25;;;;;;;0.90;0.50;;;;;;;10.34;76.40;95370.09;109012;1271;22991;-79
2023/12/25 09:16:57;;;;;;;1.70;0.20;;;;;;;10.36;76.92;95364.67;108953;1264;22500;-78
2023/12/25 09:19:33;;;;;;;1.20;0.50;;;;;;;10.34;75.31;95361.20;108976;1271;23986;-79
2023/12/25 09:22:07;;;;;;;1.00;0.70;;;;;;;10.28;75.77;95367.30;108946;1268;23647;-79
2023/12/25 09:24:39;;;;;;;0.80;0.50;;;;;;;10.31;76.31;95359.27;108988;1271;22532;-78
2023/12/25 09:27:13;;;;;;;0.90;0.50;;;;;;;10.32;75.55;95373.80;108910;1264;22515;-78
2023/12/25 09:29:45;;;;;;;1.90;0.90;;;;;;;10.26;75.37;95379.05;108930;1265;22533;-78
2023/12/25 09:32:16;;;;;;;2.10;0.60;;;;;;;10.20;75.86;95380.98;108998;1264;22587;-79
2023/12/25 09:34:47;;;;;;;0.70;0.30;;;;;;;10.19;75.79;95366.34;108985;1268;22539;-79
2023/12/25 09:37:18;;;;;;;1.30;0.50;;;;;;;10.18;75.52;95377.77;108995;1271;22526;-79
2023/12/25 09:39:51;;;;;;;1.60;0.80;;;;;;;10.19;76.01;95380.82;108975;1271;25931;-79
2023/12/25 09:42:25;;;;;;;1.00;0.40;;;;;;;10.21;76.23;95375.98;108948;1264;22540;-79
2023/12/25 09:44:56;;;;;;;2.50;0.80;;;;;;;10.22;75.75;95373.75;108918;1264;23842;-79
2023/12/25 09:47:29;;;;;;;1.30;0.60;;;;;;;10.22;76.39;95362.15;108969;1266;24209;-79
2023/12/25 09:50:04;;;;;;;1.20;0.40;;;;;;;10.22;76.53;95359.45;108934;1268;24168;-79
2023/12/25 09:52:36;;;;;;;2.10;0.70;;;;;;;10.27;76.21;95368.22;108968;1271;24711;-79
2023/12/25 09:55:09;;;;;;;0.70;0.30;;;;;;;10.29;75.99;95364.79;109005;1271;22710;-79
2023/12/25 09:57:44;;;;;;;0.80;0.50;;;;;;;10.29;75.70;95364.88;108947;1264;22521;-79
2023/12/25 10:00:19;;;;;;;0.80;0.50;;;;;;;10.31;76.09;95346.09;108902;1264;22702;-80
2023/12/25 10:02:54;;;;;;;1.30;0.90;;;;;;;10.33;76.22;95338.33;108983;1264;22896;-78
2023/12/25 10:05:30;;;;;;;1.80;0.80;;;;;;;10.35;76.12;95356.13;108985;1271;22833;-79
2023/12/25 10:08:04;;;;;;;0.80;0.70;;;;;;;10.41;75.87;95351.31;108983;1264;22526;-78
2023/12/25 10:10:37;;;;;;;0.90;0.40;;;;;;;10.41;75.29;95351.73;108962;1264;22522;-78
2023/12/25 10:13:08;;;;;;;1.30;0.50;;;;;;;10.33;74.73;95367.54;109050;1266;23662;-79
2023/12/25 10:15:40;;;;;;;0.80;0.50;;;;;;;10.27;75.36;95369.51;109015;1271;22622;-78
2023/12/25 10:18:11;;;;;;;1.10;0.40;;;;;;;10.21;75.55;95377.44;108975;1264;22746;-79
2023/12/25 10:21:09;;;;;;;1.30;0.80;;;;;;;10.16;75.66;95374.17;108977;1264;25021;-78
2023/12/25 10:23:41;;;;;;;1.40;0.90;;;;;;;10.10;76.18;95385.10;109055;1268;22529;-79
2023/12/25 10:26:12;;;;;;;2.30;1.10;;;;;;;10.06;76.26;95379.60;109008;1271;23459;-79
2023/12/25 10:28:43;;;;;;;1.70;1.00;;;;;;;10.02;76.55;95368.31;108959;1271;25438;-78
2023/12/25 10:31:13;;;;;;;1.10;0.60;;;;;;;10.02;76.47;95360.80;108945;1264;22650;-79
2023/12/25 10:33:59;;;;;;;0.60;0.20;;;;;;;10.05;76.71;95362.31;108996;1271;23957;-79
2023/12/25 10:36:30;;;;;;;1.60;0.70;;;;;;;10.06;76.72;95374.52;108998;1264;22523;-79
2023/12/25 10:39:02;;;;;;;2.50;0.80;;;;;;;10.04;76.27;95369.27;108957;1271;22532;-78
2023/12/25 10:41:35;;;;;;;0.70;0.50;;;;;;;10.03;76.51;95372.13;108967;1265;22630;-78
2023/12/25 10:44:07;;;;;;;0.70;0.50;;;;;;;10.02;76.98;95384.14;108998;1268;22648;-79
2023/12/25 10:46:40;;;;;;;2.50;0.90;;;;;;;10.00;76.82;95378.88;108968;1268;22736;-79
2023/12/25 10:49:13;;;;;;;0.80;0.50;;;;;;;9.98;77.23;95385.63;108920;1271;23786;-78
2023/12/25 10:51:46;;;;;;;0.90;0.50;;;;;;;9.95;77.13;95390.63;108952;1271;22533;-79
2023/12/25 10:54:23;;;;;;;1.00;0.50;;;;;;;9.92;77.15;95387.60;108954;1268;22487;-79
2023/12/25 10:56:59;;;;;;;1.20;0.40;;;;;;;9.88;77.33;95408.08;109008;1271;23696;-79
2023/12/25 10:59:36;;;;;;;2.30;1.10;;;;;;;9.86;77.46;95398.81;108910;1265;22736;-79
2023/12/25 11:02:11;;;;;;;1.20;0.60;;;;;;;9.86;77.36;95409.06;108859;1271;23866;-80
2023/12/25 11:04:46;;;;;;;2.30;1.00;;;;;;;9.86;77.61;95409.08;108990;1264;22606;-79
2023/12/25 11:07:20;;;;;;;2.40;0.80;;;;;;;9.83;77.70;95418.80;109015;1271;22550;-79
2023/12/25 11:10:00;;;;;;;1.70;0.80;;;;;;;9.81;78.05;95421.56;108947;1265;22528;-79
2023/12/25 11:12:32;;;;;;;2.10;0.90;;;;;;;9.81;78.02;95409.39;109003;1271;22704;-80
2023/12/25 11:15:04;;;;;;;1.00;0.80;;;;;;;9.82;78.09;95416.55;108967;1271;22558;-79
2023/12/25 11:17:38;;;;;;;2.30;0.90;;;;;;;9.82;78.21;95418.67;109036;1271;22520;-80
2023/12/25 11:20:13;;;;;;;1.10;1.00;;;;;;;9.85;78.45;95423.69;108999;1268;22579;-80
2023/12/25 11:22:45;;;;;;;2.30;1.40;;;;;;;9.86;78.20;95418.71;108998;1264;23856;-80
2023/12/25 11:25:18;;;;;;;1.30;0.90;;;;;;;9.88;78.53;95417.91;108999;1266;22514;-80
2023/12/25 11:27:55;;;;;;;1.00;0.60;;;;;;;9.86;78.64;95414.80;109004;1265;22537;-80
2023/12/25 11:30:27;;;;;;;1.90;1.00;;;;;;;9.87;78.74;95421.13;108983;1264;22525;-80
2023/12/25 11:33:01;;;;;;;0.90;0.40;;;;;;;9.88;78.73;95411.78;109044;1271;22988;-80
2023/12/25 11:35:33;;;;;;;1.80;1.00;;;;;;;9.89;78.60;95402.23;108998;1271;22534;-79
2023/12/25 11:38:34;;;;;;;1.00;0.50;;;;;;;9.88;78.63;95405.52;109009;1264;22523;-79
2023/12/25 11:41:05;;;;;;;2.00;0.70;;;;;;;9.86;78.66;95402.62;108999;1271;23996;-79
2023/12/25 11:43:41;;;;;;;1.80;0.90;;;;;;;9.86;78.69;95407.54;109007;1265;22568;-79
2023/12/25 11:46:16;;;;;;;1.80;0.80;;;;;;;9.88;78.64;95413.63;108996;1264;22547;-79
2023/12/25 11:48:50;;;;;;;0.90;0.40;;;;;;;9.89;78.71;95418.11;109031;1271;22529;-79
2023/12/25 11:51:26;;;;;;;1.10;0.60;;;;;;;9.89;78.74;95430.83;109097;1265;22529;-79
2023/12/25 11:54:00;;;;;;;1.10;0.50;;;;;;;9.88;79.00;95414.18;108919;1264;22940;-79